OK58 weather

Bluestem Airport
Collinsville, Oklahoma, United States

Public forecast

Using degrees Fahrenheit for public forecast. Weather courtesy of forecast.io.

Closest aviation weather report (METAR) to Bluestem Airport

Closest report is Tulsa International Airport, 12.0 nm (22.2 km) S. Retrieved 2020/07/09 23:53 UTC (45 minutes ago):

KTUL 092353Z 04008KT 10SM SCT090 SCT140 32/20 A2988 RMK AO2 SLP108 60000 T03170200 10317 20256 53008

Closest aviation forecast (TAF) to Bluestem Airport

Closest forecast is Tulsa International Airport, 12.0 nm (22.2 km) S. Retrieved 2020-07-10 00:27 UTC (11 minutes ago):

TAF KTUL 092324Z 1000/1024 15010KT P6SM BKN080 FM101000 11005KT P6SM BKN080 PROB30 1010/1016 TSRA BKN050CB FM101600 18005KT P6SM SCT100 BKN250 PROB30 1016/1022 TSRA BKN050CB